sensor_id;sensor_type;location;lat;lon;timestamp;temperature;humidity
40516;DHT22;26216;53.724;9.898;2023-08-24T00:00:43;20.70;93.40
40516;DHT22;26216;53.724;9.898;2023-08-24T00:03:09;20.70;93.40
40516;DHT22;26216;53.724;9.898;2023-08-24T00:05:36;20.70;93.40
40516;DHT22;26216;53.724;9.898;2023-08-24T00:08:09;20.60;93.40
40516;DHT22;26216;53.724;9.898;2023-08-24T00:10:36;20.60;93.40
40516;DHT22;26216;53.724;9.898;2023-08-24T00:13:02;20.60;93.30
40516;DHT22;26216;53.724;9.898;2023-08-24T00:15:28;20.50;93.30
40516;DHT22;26216;53.724;9.898;2023-08-24T00:17:54;20.50;93.30
40516;DHT22;26216;53.724;9.898;2023-08-24T00:20:20;20.50;93.30
40516;DHT22;26216;53.724;9.898;2023-08-24T00:22:46;20.40;93.30
40516;DHT22;26216;53.724;9.898;2023-08-24T00:25:13;20.40;93.40
40516;DHT22;26216;53.724;9.898;2023-08-24T00:27:39;20.40;93.40
40516;DHT22;26216;53.724;9.898;2023-08-24T00:30:07;20.30;93.30
40516;DHT22;26216;53.724;9.898;2023-08-24T00:32:33;20.40;93.40
40516;DHT22;26216;53.724;9.898;2023-08-24T00:35:04;20.30;93.30
40516;DHT22;26216;53.724;9.898;2023-08-24T00:37:31;20.30;93.30
40516;DHT22;26216;53.724;9.898;2023-08-24T00:40:00;20.20;93.20
40516;DHT22;26216;53.724;9.898;2023-08-24T00:42:27;20.20;93.20
40516;DHT22;26216;53.724;9.898;2023-08-24T00:44:53;20.20;93.20
40516;DHT22;26216;53.724;9.898;2023-08-24T00:47:19;20.10;93.20
40516;DHT22;26216;53.724;9.898;2023-08-24T00:49:45;20.10;93.20
40516;DHT22;26216;53.724;9.898;2023-08-24T00:52:12;20.10;93.20
40516;DHT22;26216;53.724;9.898;2023-08-24T00:54:39;20.00;93.20
40516;DHT22;26216;53.724;9.898;2023-08-24T00:57:06;20.00;93.20
40516;DHT22;26216;53.724;9.898;2023-08-24T00:59:33;20.00;93.20
40516;DHT22;26216;53.724;9.898;2023-08-24T01:01:59;19.90;93.20
40516;DHT22;26216;53.724;9.898;2023-08-24T01:04:25;19.90;93.20
40516;DHT22;26216;53.724;9.898;2023-08-24T01:06:51;19.80;93.10
40516;DHT22;26216;53.724;9.898;2023-08-24T01:09:19;19.80;93.20
40516;DHT22;26216;53.724;9.898;2023-08-24T01:13:09;19.80;93.20
40516;DHT22;26216;53.724;9.898;2023-08-24T01:15:13;19.70;93.30
40516;DHT22;26216;53.724;9.898;2023-08-24T01:17:42;19.70;93.20
40516;DHT22;26216;53.724;9.898;2023-08-24T01:20:10;19.70;93.20
40516;DHT22;26216;53.724;9.898;2023-08-24T01:22:51;19.60;93.20
40516;DHT22;26216;53.724;9.898;2023-08-24T01:25:42;19.60;93.30
40516;DHT22;26216;53.724;9.898;2023-08-24T01:28:13;19.50;93.30
40516;DHT22;26216;53.724;9.898;2023-08-24T01:30:39;19.50;93.10
40516;DHT22;26216;53.724;9.898;2023-08-24T01:33:04;19.40;93.10
40516;DHT22;26216;53.724;9.898;2023-08-24T01:35:31;19.40;93.10
40516;DHT22;26216;53.724;9.898;2023-08-24T01:37:58;19.40;93.20
40516;DHT22;26216;53.724;9.898;2023-08-24T01:40:39;19.30;93.10
40516;DHT22;26216;53.724;9.898;2023-08-24T01:43:07;19.30;93.20
40516;DHT22;26216;53.724;9.898;2023-08-24T01:45:34;19.30;93.10
40516;DHT22;26216;53.724;9.898;2023-08-24T01:48:02;19.20;93.10
40516;DHT22;26216;53.724;9.898;2023-08-24T01:50:29;19.20;93.20
40516;DHT22;26216;53.724;9.898;2023-08-24T01:52:56;19.20;93.20
40516;DHT22;26216;53.724;9.898;2023-08-24T01:55:23;19.20;93.10
40516;DHT22;26216;53.724;9.898;2023-08-24T01:57:49;19.10;93.10
40516;DHT22;26216;53.724;9.898;2023-08-24T02:00:15;19.10;93.40
40516;DHT22;26216;53.724;9.898;2023-08-24T02:02:44;19.00;93.10
40516;DHT22;26216;53.724;9.898;2023-08-24T02:05:10;19.00;93.20
40516;DHT22;26216;53.724;9.898;2023-08-24T02:07:38;18.90;93.20
40516;DHT22;26216;53.724;9.898;2023-08-24T02:10:04;18.90;93.20
40516;DHT22;26216;53.724;9.898;2023-08-24T02:12:30;18.90;93.20
40516;DHT22;26216;53.724;9.898;2023-08-24T02:14:56;18.80;93.20
40516;DHT22;26216;53.724;9.898;2023-08-24T02:17:21;18.80;93.20
40516;DHT22;26216;53.724;9.898;2023-08-24T02:19:47;18.80;93.20
40516;DHT22;26216;53.724;9.898;2023-08-24T02:22:13;18.80;93.20
40516;DHT22;26216;53.724;9.898;2023-08-24T02:24:39;18.70;93.30
40516;DHT22;26216;53.724;9.898;2023-08-24T02:27:05;18.70;93.30
40516;DHT22;26216;53.724;9.898;2023-08-24T02:29:30;18.70;93.30
40516;DHT22;26216;53.724;9.898;2023-08-24T02:31:56;18.70;93.30
40516;DHT22;26216;53.724;9.898;2023-08-24T02:34:22;18.60;93.40
40516;DHT22;26216;53.724;9.898;2023-08-24T02:36:48;18.60;93.40
40516;DHT22;26216;53.724;9.898;2023-08-24T02:39:14;18.60;93.50
40516;DHT22;26216;53.724;9.898;2023-08-24T02:41:40;18.60;93.50
40516;DHT22;26216;53.724;9.898;2023-08-24T02:44:06;18.60;93.60
40516;DHT22;26216;53.724;9.898;2023-08-24T02:46:32;18.60;93.60
40516;DHT22;26216;53.724;9.898;2023-08-24T02:48:59;18.50;93.60
40516;DHT22;26216;53.724;9.898;2023-08-24T02:51:24;18.50;93.70
40516;DHT22;26216;53.724;9.898;2023-08-24T02:53:50;18.40;93.70
40516;DHT22;26216;53.724;9.898;2023-08-24T02:56:17;18.50;93.80
40516;DHT22;26216;53.724;9.898;2023-08-24T02:58:42;18.40;93.80
40516;DHT22;26216;53.724;9.898;2023-08-24T03:01:08;18.40;93.80
40516;DHT22;26216;53.724;9.898;2023-08-24T03:03:35;18.40;93.80
40516;DHT22;26216;53.724;9.898;2023-08-24T03:06:03;18.40;93.80
40516;DHT22;26216;53.724;9.898;2023-08-24T03:08:30;18.40;93.80
40516;DHT22;26216;53.724;9.898;2023-08-24T03:10:57;18.40;93.80
40516;DHT22;26216;53.724;9.898;2023-08-24T03:13:23;18.40;93.90
40516;DHT22;26216;53.724;9.898;2023-08-24T03:15:49;18.40;93.90
40516;DHT22;26216;53.724;9.898;2023-08-24T03:18:16;18.40;94.00
40516;DHT22;26216;53.724;9.898;2023-08-24T03:20:43;18.40;94.00
40516;DHT22;26216;53.724;9.898;2023-08-24T03:23:09;18.40;94.00
40516;DHT22;26216;53.724;9.898;2023-08-24T03:25:36;18.40;94.00
40516;DHT22;26216;53.724;9.898;2023-08-24T03:28:03;18.40;94.00
40516;DHT22;26216;53.724;9.898;2023-08-24T03:30:29;18.40;94.00
40516;DHT22;26216;53.724;9.898;2023-08-24T03:32:55;18.30;93.90
40516;DHT22;26216;53.724;9.898;2023-08-24T03:35:22;18.30;94.00
40516;DHT22;26216;53.724;9.898;2023-08-24T03:37:48;18.30;94.00
40516;DHT22;26216;53.724;9.898;2023-08-24T03:40:13;18.30;94.00
40516;DHT22;26216;53.724;9.898;2023-08-24T03:42:40;18.30;94.00
40516;DHT22;26216;53.724;9.898;2023-08-24T03:45:06;18.20;94.00
40516;DHT22;26216;53.724;9.898;2023-08-24T03:47:32;18.20;94.00
40516;DHT22;26216;53.724;9.898;2023-08-24T03:49:58;18.20;94.00
40516;DHT22;26216;53.724;9.898;2023-08-24T03:52:24;18.20;94.00
40516;DHT22;26216;53.724;9.898;2023-08-24T03:54:50;18.20;94.00
40516;DHT22;26216;53.724;9.898;2023-08-24T03:57:16;18.20;94.00
40516;DHT22;26216;53.724;9.898;2023-08-24T03:59:42;18.20;94.00
40516;DHT22;26216;53.724;9.898;2023-08-24T04:02:08;18.20;94.00
40516;DHT22;26216;53.724;9.898;2023-08-24T04:04:34;18.10;94.00
40516;DHT22;26216;53.724;9.898;2023-08-24T04:06:59;18.10;94.00
40516;DHT22;26216;53.724;9.898;2023-08-24T04:09:25;18.10;94.00
40516;DHT22;26216;53.724;9.898;2023-08-24T04:11:51;18.10;94.00
40516;DHT22;26216;53.724;9.898;2023-08-24T04:14:17;18.10;94.00
40516;DHT22;26216;53.724;9.898;2023-08-24T04:16:43;18.10;94.00
40516;DHT22;26216;53.724;9.898;2023-08-24T04:19:09;18.00;94.00
40516;DHT22;26216;53.724;9.898;2023-08-24T04:21:35;18.00;94.00
40516;DHT22;26216;53.724;9.898;2023-08-24T04:24:01;18.00;94.00
40516;DHT22;26216;53.724;9.898;2023-08-24T04:26:26;18.00;94.00
40516;DHT22;26216;53.724;9.898;2023-08-24T04:28:52;18.00;94.00
40516;DHT22;26216;53.724;9.898;2023-08-24T04:31:18;17.90;94.00
40516;DHT22;26216;53.724;9.898;2023-08-24T04:33:44;18.00;94.10
40516;DHT22;26216;53.724;9.898;2023-08-24T04:36:09;17.90;94.00
40516;DHT22;26216;53.724;9.898;2023-08-24T04:38:35;17.90;94.00
40516;DHT22;26216;53.724;9.898;2023-08-24T04:41:02;17.90;94.00
40516;DHT22;26216;53.724;9.898;2023-08-24T04:43:32;17.90;94.10
40516;DHT22;26216;53.724;9.898;2023-08-24T04:45:58;17.90;94.10
40516;DHT22;26216;53.724;9.898;2023-08-24T04:48:26;17.90;94.00
40516;DHT22;26216;53.724;9.898;2023-08-24T04:50:52;17.90;94.00
40516;DHT22;26216;53.724;9.898;2023-08-24T04:53:20;17.90;94.10
40516;DHT22;26216;53.724;9.898;2023-08-24T04:55:46;17.80;94.10
40516;DHT22;26216;53.724;9.898;2023-08-24T04:58:12;17.80;94.10
40516;DHT22;26216;53.724;9.898;2023-08-24T05:00:41;17.80;94.10
40516;DHT22;26216;53.724;9.898;2023-08-24T05:03:08;17.80;94.20
40516;DHT22;26216;53.724;9.898;2023-08-24T05:05:35;17.90;94.20
40516;DHT22;26216;53.724;9.898;2023-08-24T05:08:02;17.80;94.20
40516;DHT22;26216;53.724;9.898;2023-08-24T05:10:34;17.80;94.30
40516;DHT22;26216;53.724;9.898;2023-08-24T05:13:00;17.80;94.40
40516;DHT22;26216;53.724;9.898;2023-08-24T05:15:26;17.80;94.30
40516;DHT22;26216;53.724;9.898;2023-08-24T05:17:52;17.90;94.40
40516;DHT22;26216;53.724;9.898;2023-08-24T05:20:21;17.90;94.50
40516;DHT22;26216;53.724;9.898;2023-08-24T05:22:47;17.90;94.60
40516;DHT22;26216;53.724;9.898;2023-08-24T05:25:13;17.90;94.50
40516;DHT22;26216;53.724;9.898;2023-08-24T05:27:39;17.90;94.70
40516;DHT22;26216;53.724;9.898;2023-08-24T05:30:06;17.90;94.70
40516;DHT22;26216;53.724;9.898;2023-08-24T05:32:32;18.00;94.80
40516;DHT22;26216;53.724;9.898;2023-08-24T05:34:58;18.00;94.90
40516;DHT22;26216;53.724;9.898;2023-08-24T05:37:24;18.10;94.90
40516;DHT22;26216;53.724;9.898;2023-08-24T05:39:50;18.10;95.00
40516;DHT22;26216;53.724;9.898;2023-08-24T05:42:16;18.10;95.10
40516;DHT22;26216;53.724;9.898;2023-08-24T05:44:42;18.20;95.30
40516;DHT22;26216;53.724;9.898;2023-08-24T05:47:07;18.20;95.40
40516;DHT22;26216;53.724;9.898;2023-08-24T05:49:33;18.30;95.50
40516;DHT22;26216;53.724;9.898;2023-08-24T05:51:59;18.30;95.50
40516;DHT22;26216;53.724;9.898;2023-08-24T05:54:25;18.40;95.60
40516;DHT22;26216;53.724;9.898;2023-08-24T05:56:51;18.50;95.80
40516;DHT22;26216;53.724;9.898;2023-08-24T05:59:17;18.50;95.80
40516;DHT22;26216;53.724;9.898;2023-08-24T06:01:42;18.60;96.00
40516;DHT22;26216;53.724;9.898;2023-08-24T06:04:09;18.70;96.10
40516;DHT22;26216;53.724;9.898;2023-08-24T06:06:35;18.80;96.30
40516;DHT22;26216;53.724;9.898;2023-08-24T06:09:02;18.90;96.60
40516;DHT22;26216;53.724;9.898;2023-08-24T06:11:32;19.00;96.70
40516;DHT22;26216;53.724;9.898;2023-08-24T06:13:58;19.10;96.80
40516;DHT22;26216;53.724;9.898;2023-08-24T06:16:24;19.30;96.90
40516;DHT22;26216;53.724;9.898;2023-08-24T06:18:50;19.40;96.90
40516;DHT22;26216;53.724;9.898;2023-08-24T06:21:16;19.50;97.00
40516;DHT22;26216;53.724;9.898;2023-08-24T06:23:42;19.60;97.00
40516;DHT22;26216;53.724;9.898;2023-08-24T06:26:09;19.80;97.00
40516;DHT22;26216;53.724;9.898;2023-08-24T06:28:35;19.90;97.00
40516;DHT22;26216;53.724;9.898;2023-08-24T06:31:01;20.00;97.10
40516;DHT22;26216;53.724;9.898;2023-08-24T06:33:28;20.20;97.10
40516;DHT22;26216;53.724;9.898;2023-08-24T06:35:57;20.30;97.00
40516;DHT22;26216;53.724;9.898;2023-08-24T06:38:23;20.40;97.00
40516;DHT22;26216;53.724;9.898;2023-08-24T06:40:49;20.50;96.90
40516;DHT22;26216;53.724;9.898;2023-08-24T06:43:14;20.60;97.00
40516;DHT22;26216;53.724;9.898;2023-08-24T06:45:41;20.70;97.00
40516;DHT22;26216;53.724;9.898;2023-08-24T06:48:07;20.80;97.00
40516;DHT22;26216;53.724;9.898;2023-08-24T06:50:33;20.90;97.00
40516;DHT22;26216;53.724;9.898;2023-08-24T06:52:59;21.00;97.00
40516;DHT22;26216;53.724;9.898;2023-08-24T06:55:26;21.20;97.00
40516;DHT22;26216;53.724;9.898;2023-08-24T06:57:52;21.30;96.90
40516;DHT22;26216;53.724;9.898;2023-08-24T07:00:19;21.40;96.90
40516;DHT22;26216;53.724;9.898;2023-08-24T07:02:51;21.50;96.80
40516;DHT22;26216;53.724;9.898;2023-08-24T07:05:17;21.60;96.60
40516;DHT22;26216;53.724;9.898;2023-08-24T07:07:46;21.80;96.50
40516;DHT22;26216;53.724;9.898;2023-08-24T07:10:13;21.80;96.50
40516;DHT22;26216;53.724;9.898;2023-08-24T07:12:39;21.90;96.30
40516;DHT22;26216;53.724;9.898;2023-08-24T07:15:10;22.00;96.00
40516;DHT22;26216;53.724;9.898;2023-08-24T07:17:36;22.10;96.00
40516;DHT22;26216;53.724;9.898;2023-08-24T07:20:03;22.10;95.90
40516;DHT22;26216;53.724;9.898;2023-08-24T07:22:34;22.20;95.90
40516;DHT22;26216;53.724;9.898;2023-08-24T07:25:04;22.30;95.80
40516;DHT22;26216;53.724;9.898;2023-08-24T07:27:32;22.40;95.40
40516;DHT22;26216;53.724;9.898;2023-08-24T07:29:58;22.40;95.40
40516;DHT22;26216;53.724;9.898;2023-08-24T07:32:26;22.50;95.00
40516;DHT22;26216;53.724;9.898;2023-08-24T07:34:52;22.50;94.90
40516;DHT22;26216;53.724;9.898;2023-08-24T07:37:18;22.60;94.60
40516;DHT22;26216;53.724;9.898;2023-08-24T07:39:44;22.70;94.30
40516;DHT22;26216;53.724;9.898;2023-08-24T07:42:10;22.70;94.20
40516;DHT22;26216;53.724;9.898;2023-08-24T07:44:36;22.70;94.20
40516;DHT22;26216;53.724;9.898;2023-08-24T07:47:02;22.80;94.10
40516;DHT22;26216;53.724;9.898;2023-08-24T07:49:28;22.80;94.30
40516;DHT22;26216;53.724;9.898;2023-08-24T07:51:54;22.90;94.30
40516;DHT22;26216;53.724;9.898;2023-08-24T07:54:21;23.00;94.00
40516;DHT22;26216;53.724;9.898;2023-08-24T07:56:47;23.10;94.20
40516;DHT22;26216;53.724;9.898;2023-08-24T07:59:12;23.10;94.00
40516;DHT22;26216;53.724;9.898;2023-08-24T08:01:38;23.20;94.10
40516;DHT22;26216;53.724;9.898;2023-08-24T08:04:04;23.20;94.10
40516;DHT22;26216;53.724;9.898;2023-08-24T08:06:30;23.30;94.00
40516;DHT22;26216;53.724;9.898;2023-08-24T08:08:56;23.40;93.70
40516;DHT22;26216;53.724;9.898;2023-08-24T08:11:23;23.50;93.70
40516;DHT22;26216;53.724;9.898;2023-08-24T08:13:49;23.60;93.30
40516;DHT22;26216;53.724;9.898;2023-08-24T08:16:15;23.70;92.60
40516;DHT22;26216;53.724;9.898;2023-08-24T08:18:41;23.80;92.80
40516;DHT22;26216;53.724;9.898;2023-08-24T08:21:14;23.80;92.90
40516;DHT22;26216;53.724;9.898;2023-08-24T08:23:40;23.90;92.70
40516;DHT22;26216;53.724;9.898;2023-08-24T08:26:08;23.90;92.50
40516;DHT22;26216;53.724;9.898;2023-08-24T08:28:35;24.00;92.00
40516;DHT22;26216;53.724;9.898;2023-08-24T08:31:01;24.10;92.20
40516;DHT22;26216;53.724;9.898;2023-08-24T08:33:28;24.10;92.20
40516;DHT22;26216;53.724;9.898;2023-08-24T08:35:54;24.20;92.10
40516;DHT22;26216;53.724;9.898;2023-08-24T08:38:20;24.20;92.20
40516;DHT22;26216;53.724;9.898;2023-08-24T08:40:53;24.30;92.40
40516;DHT22;26216;53.724;9.898;2023-08-24T08:43:21;24.40;91.60
40516;DHT22;26216;53.724;9.898;2023-08-24T08:45:52;24.40;91.60
40516;DHT22;26216;53.724;9.898;2023-08-24T08:48:20;24.50;91.10
40516;DHT22;26216;53.724;9.898;2023-08-24T08:50:51;24.60;91.30
40516;DHT22;26216;53.724;9.898;2023-08-24T08:53:21;24.70;91.10
40516;DHT22;26216;53.724;9.898;2023-08-24T08:55:51;24.70;91.40
40516;DHT22;26216;53.724;9.898;2023-08-24T08:58:17;24.90;91.00
40516;DHT22;26216;53.724;9.898;2023-08-24T09:00:46;24.90;91.20
40516;DHT22;26216;53.724;9.898;2023-08-24T09:03:14;24.90;90.70
40516;DHT22;26216;53.724;9.898;2023-08-24T09:05:43;25.00;90.60
40516;DHT22;26216;53.724;9.898;2023-08-24T09:08:09;25.10;90.90
40516;DHT22;26216;53.724;9.898;2023-08-24T09:10:35;25.10;90.10
40516;DHT22;26216;53.724;9.898;2023-08-24T09:13:01;25.10;90.10
40516;DHT22;26216;53.724;9.898;2023-08-24T09:15:27;25.20;90.40
40516;DHT22;26216;53.724;9.898;2023-08-24T09:17:54;25.20;90.20
40516;DHT22;26216;53.724;9.898;2023-08-24T09:20:22;25.30;90.50
40516;DHT22;26216;53.724;9.898;2023-08-24T09:22:47;25.40;90.00
40516;DHT22;26216;53.724;9.898;2023-08-24T09:25:13;25.40;90.30
40516;DHT22;26216;53.724;9.898;2023-08-24T09:27:39;25.50;90.30
40516;DHT22;26216;53.724;9.898;2023-08-24T09:30:07;25.50;87.90
40516;DHT22;26216;53.724;9.898;2023-08-24T09:32:33;25.60;87.90
40516;DHT22;26216;53.724;9.898;2023-08-24T09:35:09;25.60;88.40
40516;DHT22;26216;53.724;9.898;2023-08-24T09:37:35;25.70;88.40
40516;DHT22;26216;53.724;9.898;2023-08-24T09:40:06;25.70;89.20
40516;DHT22;26216;53.724;9.898;2023-08-24T09:42:41;25.70;89.60
40516;DHT22;26216;53.724;9.898;2023-08-24T09:45:11;25.80;89.90
40516;DHT22;26216;53.724;9.898;2023-08-24T09:47:38;25.90;89.70
40516;DHT22;26216;53.724;9.898;2023-08-24T09:50:04;26.00;88.70
40516;DHT22;26216;53.724;9.898;2023-08-24T09:52:34;26.10;89.10
40516;DHT22;26216;53.724;9.898;2023-08-24T09:55:04;26.10;89.30
40516;DHT22;26216;53.724;9.898;2023-08-24T09:57:39;26.20;90.10
40516;DHT22;26216;53.724;9.898;2023-08-24T10:00:07;26.30;89.20
40516;DHT22;26216;53.724;9.898;2023-08-24T10:02:40;26.30;87.70
40516;DHT22;26216;53.724;9.898;2023-08-24T10:05:08;26.40;86.90
40516;DHT22;26216;53.724;9.898;2023-08-24T10:07:35;26.40;87.80
40516;DHT22;26216;53.724;9.898;2023-08-24T10:10:04;26.50;86.40
40516;DHT22;26216;53.724;9.898;2023-08-24T10:12:39;26.50;87.70
40516;DHT22;26216;53.724;9.898;2023-08-24T10:15:07;26.60;87.20
40516;DHT22;26216;53.724;9.898;2023-08-24T10:17:34;26.60;87.80
40516;DHT22;26216;53.724;9.898;2023-08-24T10:20:01;26.80;87.70
40516;DHT22;26216;53.724;9.898;2023-08-24T10:22:31;26.80;88.00
40516;DHT22;26216;53.724;9.898;2023-08-24T10:24:59;26.90;87.80
40516;DHT22;26216;53.724;9.898;2023-08-24T10:27:27;27.00;88.00
40516;DHT22;26216;53.724;9.898;2023-08-24T10:29:54;27.10;88.20
40516;DHT22;26216;53.724;9.898;2023-08-24T10:32:21;27.20;88.40
40516;DHT22;26216;53.724;9.898;2023-08-24T10:34:48;27.30;87.10
40516;DHT22;26216;53.724;9.898;2023-08-24T10:37:14;27.30;86.50
40516;DHT22;26216;53.724;9.898;2023-08-24T10:39:47;27.40;86.80
40516;DHT22;26216;53.724;9.898;2023-08-24T10:42:13;27.50;87.10
40516;DHT22;26216;53.724;9.898;2023-08-24T10:44:43;27.60;86.70
40516;DHT22;26216;53.724;9.898;2023-08-24T10:47:21;27.60;86.70
40516;DHT22;26216;53.724;9.898;2023-08-24T10:52:24;27.70;83.60
40516;DHT22;26216;53.724;9.898;2023-08-24T10:54:52;27.80;83.10
40516;DHT22;26216;53.724;9.898;2023-08-24T11:00:04;27.80;83.50
40516;DHT22;26216;53.724;9.898;2023-08-24T11:02:51;27.90;84.30
40516;DHT22;26216;53.724;9.898;2023-08-24T11:05:26;27.90;83.20
40516;DHT22;26216;53.724;9.898;2023-08-24T11:13:15;28.10;84.00
40516;DHT22;26216;53.724;9.898;2023-08-24T11:15:47;28.20;84.40
40516;DHT22;26216;53.724;9.898;2023-08-24T11:20:45;28.30;84.10
40516;DHT22;26216;53.724;9.898;2023-08-24T11:23:14;28.40;84.10
40516;DHT22;26216;53.724;9.898;2023-08-24T11:25:40;28.50;79.60
40516;DHT22;26216;53.724;9.898;2023-08-24T11:28:06;28.50;81.90
40516;DHT22;26216;53.724;9.898;2023-08-24T11:30:33;28.60;82.20
40516;DHT22;26216;53.724;9.898;2023-08-24T11:32:59;28.60;82.40
40516;DHT22;26216;53.724;9.898;2023-08-24T11:35:25;28.70;80.70
40516;DHT22;26216;53.724;9.898;2023-08-24T11:37:55;28.70;79.50
40516;DHT22;26216;53.724;9.898;2023-08-24T11:40:22;28.80;80.40
40516;DHT22;26216;53.724;9.898;2023-08-24T11:42:58;28.80;80.60
40516;DHT22;26216;53.724;9.898;2023-08-24T11:45:24;28.90;80.30
40516;DHT22;26216;53.724;9.898;2023-08-24T11:47:50;28.90;80.50
40516;DHT22;26216;53.724;9.898;2023-08-24T11:50:17;29.10;79.90
40516;DHT22;26216;53.724;9.898;2023-08-24T11:52:43;29.10;79.70
40516;DHT22;26216;53.724;9.898;2023-08-24T11:55:10;29.10;79.10
40516;DHT22;26216;53.724;9.898;2023-08-24T11:57:36;29.20;79.60
40516;DHT22;26216;53.724;9.898;2023-08-24T12:00:06;29.20;77.30
40516;DHT22;26216;53.724;9.898;2023-08-24T12:02:33;29.30;78.90
40516;DHT22;26216;53.724;9.898;2023-08-24T12:04:59;29.30;79.80
40516;DHT22;26216;53.724;9.898;2023-08-24T12:07:25;29.40;80.30
40516;DHT22;26216;53.724;9.898;2023-08-24T12:09:52;29.40;79.60
40516;DHT22;26216;53.724;9.898;2023-08-24T12:12:20;29.50;79.00
40516;DHT22;26216;53.724;9.898;2023-08-24T12:14:49;29.60;78.20
40516;DHT22;26216;53.724;9.898;2023-08-24T12:17:16;29.60;77.70
40516;DHT22;26216;53.724;9.898;2023-08-24T12:19:43;29.60;77.90
40516;DHT22;26216;53.724;9.898;2023-08-24T12:22:16;29.70;78.20
40516;DHT22;26216;53.724;9.898;2023-08-24T12:24:46;29.70;79.10
40516;DHT22;26216;53.724;9.898;2023-08-24T12:27:23;29.70;77.40
40516;DHT22;26216;53.724;9.898;2023-08-24T12:29:50;29.70;77.90
40516;DHT22;26216;53.724;9.898;2023-08-24T12:32:17;29.70;77.20
40516;DHT22;26216;53.724;9.898;2023-08-24T12:34:46;29.80;77.30
40516;DHT22;26216;53.724;9.898;2023-08-24T12:37:12;29.80;77.50
40516;DHT22;26216;53.724;9.898;2023-08-24T12:39:39;29.90;77.70
40516;DHT22;26216;53.724;9.898;2023-08-24T12:42:06;29.90;77.80
40516;DHT22;26216;53.724;9.898;2023-08-24T12:44:33;30.00;78.20
40516;DHT22;26216;53.724;9.898;2023-08-24T12:46:59;30.00;77.40
40516;DHT22;26216;53.724;9.898;2023-08-24T12:49:25;30.10;76.90
40516;DHT22;26216;53.724;9.898;2023-08-24T12:51:51;30.10;76.20
40516;DHT22;26216;53.724;9.898;2023-08-24T12:54:17;30.20;76.40
40516;DHT22;26216;53.724;9.898;2023-08-24T12:56:43;30.20;75.40
40516;DHT22;26216;53.724;9.898;2023-08-24T12:59:09;30.20;76.00
40516;DHT22;26216;53.724;9.898;2023-08-24T13:01:35;30.20;74.50
40516;DHT22;26216;53.724;9.898;2023-08-24T13:04:01;30.20;75.20
40516;DHT22;26216;53.724;9.898;2023-08-24T13:06:27;30.20;74.50
40516;DHT22;26216;53.724;9.898;2023-08-24T13:08:53;30.30;73.80
40516;DHT22;26216;53.724;9.898;2023-08-24T13:11:22;30.30;74.60
40516;DHT22;26216;53.724;9.898;2023-08-24T13:13:49;30.30;74.40
40516;DHT22;26216;53.724;9.898;2023-08-24T13:16:15;30.30;74.70
40516;DHT22;26216;53.724;9.898;2023-08-24T13:18:42;30.30;75.10
40516;DHT22;26216;53.724;9.898;2023-08-24T13:21:08;30.40;75.00
40516;DHT22;26216;53.724;9.898;2023-08-24T13:23:34;30.50;75.20
40516;DHT22;26216;53.724;9.898;2023-08-24T13:26:01;30.60;75.20
40516;DHT22;26216;53.724;9.898;2023-08-24T13:28:27;30.60;75.30
40516;DHT22;26216;53.724;9.898;2023-08-24T13:30:55;30.60;74.80
40516;DHT22;26216;53.724;9.898;2023-08-24T13:33:21;30.60;75.00
40516;DHT22;26216;53.724;9.898;2023-08-24T13:35:47;30.70;74.60
40516;DHT22;26216;53.724;9.898;2023-08-24T13:38:14;30.70;74.60
40516;DHT22;26216;53.724;9.898;2023-08-24T13:40:40;30.80;74.60
40516;DHT22;26216;53.724;9.898;2023-08-24T13:43:05;30.80;75.10
40516;DHT22;26216;53.724;9.898;2023-08-24T13:45:31;30.80;74.20
40516;DHT22;26216;53.724;9.898;2023-08-24T13:48:00;30.80;73.90
40516;DHT22;26216;53.724;9.898;2023-08-24T13:50:25;30.90;73.50
40516;DHT22;26216;53.724;9.898;2023-08-24T13:52:51;30.90;71.70
40516;DHT22;26216;53.724;9.898;2023-08-24T13:55:17;30.90;72.30
40516;DHT22;26216;53.724;9.898;2023-08-24T13:57:43;31.00;72.80
40516;DHT22;26216;53.724;9.898;2023-08-24T14:00:09;31.00;73.00
40516;DHT22;26216;53.724;9.898;2023-08-24T14:02:37;31.00;72.70
40516;DHT22;26216;53.724;9.898;2023-08-24T14:05:03;30.90;72.80
40516;DHT22;26216;53.724;9.898;2023-08-24T14:07:29;31.00;72.20
40516;DHT22;26216;53.724;9.898;2023-08-24T14:09:55;31.00;73.00
40516;DHT22;26216;53.724;9.898;2023-08-24T14:12:21;31.00;72.50
40516;DHT22;26216;53.724;9.898;2023-08-24T14:14:47;31.00;73.10
40516;DHT22;26216;53.724;9.898;2023-08-24T14:17:13;31.00;71.40
40516;DHT22;26216;53.724;9.898;2023-08-24T14:19:39;31.00;71.80
40516;DHT22;26216;53.724;9.898;2023-08-24T14:22:05;31.00;72.10
40516;DHT22;26216;53.724;9.898;2023-08-24T14:24:30;31.00;72.30
40516;DHT22;26216;53.724;9.898;2023-08-24T14:26:56;31.00;71.90
40516;DHT22;26216;53.724;9.898;2023-08-24T14:29:22;31.00;72.50
40516;DHT22;26216;53.724;9.898;2023-08-24T14:31:48;31.00;72.90
40516;DHT22;26216;53.724;9.898;2023-08-24T14:34:14;31.00;72.20
40516;DHT22;26216;53.724;9.898;2023-08-24T14:36:40;31.00;71.90
40516;DHT22;26216;53.724;9.898;2023-08-24T14:39:06;31.10;72.20
40516;DHT22;26216;53.724;9.898;2023-08-24T14:41:32;31.10;72.20
40516;DHT22;26216;53.724;9.898;2023-08-24T14:43:58;31.10;72.20
40516;DHT22;26216;53.724;9.898;2023-08-24T14:46:24;31.10;72.50
40516;DHT22;26216;53.724;9.898;2023-08-24T14:48:50;31.10;72.60
40516;DHT22;26216;53.724;9.898;2023-08-24T14:51:16;31.10;72.90
40516;DHT22;26216;53.724;9.898;2023-08-24T14:53:42;31.10;72.60
40516;DHT22;26216;53.724;9.898;2023-08-24T14:56:09;31.10;72.00
40516;DHT22;26216;53.724;9.898;2023-08-24T14:58:36;31.10;72.60
40516;DHT22;26216;53.724;9.898;2023-08-24T15:01:02;31.20;72.90
40516;DHT22;26216;53.724;9.898;2023-08-24T15:03:28;31.20;72.60
40516;DHT22;26216;53.724;9.898;2023-08-24T15:08:22;31.30;72.90
40516;DHT22;26216;53.724;9.898;2023-08-24T15:10:49;31.30;72.30
40516;DHT22;26216;53.724;9.898;2023-08-24T15:13:15;31.30;73.10
40516;DHT22;26216;53.724;9.898;2023-08-24T15:15:41;31.30;73.40
40516;DHT22;26216;53.724;9.898;2023-08-24T15:18:09;31.30;73.40
40516;DHT22;26216;53.724;9.898;2023-08-24T15:20:35;31.40;73.00
40516;DHT22;26216;53.724;9.898;2023-08-24T15:23:01;31.40;73.00
40516;DHT22;26216;53.724;9.898;2023-08-24T15:25:27;31.40;72.40
40516;DHT22;26216;53.724;9.898;2023-08-24T15:27:53;31.30;71.70
40516;DHT22;26216;53.724;9.898;2023-08-24T15:30:19;31.30;72.10
40516;DHT22;26216;53.724;9.898;2023-08-24T15:32:46;31.30;72.00
40516;DHT22;26216;53.724;9.898;2023-08-24T15:35:12;31.20;71.90
40516;DHT22;26216;53.724;9.898;2023-08-24T15:37:40;31.10;71.80
40516;DHT22;26216;53.724;9.898;2023-08-24T15:40:09;31.00;71.90
40516;DHT22;26216;53.724;9.898;2023-08-24T15:42:36;31.00;72.10
40516;DHT22;26216;53.724;9.898;2023-08-24T15:45:02;30.90;72.40